createdAt,value
2019-05-15T00:00:21.017Z,0
2019-05-15T00:01:21.799Z,0
2019-05-15T00:02:23.615Z,0
2019-05-15T00:03:22.615Z,0
2019-05-15T00:04:21.330Z,0
2019-05-15T00:05:21.534Z,0
2019-05-15T00:06:21.760Z,0
2019-05-15T00:07:20.963Z,0
2019-05-15T00:08:21.049Z,0
2019-05-15T00:09:21.649Z,0
2019-05-15T00:10:20.750Z,0
2019-05-15T00:11:21.827Z,0
2019-05-15T00:12:21.524Z,0
2019-05-15T00:13:21.188Z,0
2019-05-15T00:14:20.902Z,0
2019-05-15T00:15:20.887Z,0
2019-05-15T00:16:20.739Z,0
2019-05-15T00:17:24.342Z,0
2019-05-15T00:18:21.236Z,0
2019-05-15T00:19:21.327Z,0
2019-05-15T00:20:22.805Z,0
2019-05-15T00:21:20.711Z,0
2019-05-15T00:22:21.048Z,0
2019-05-15T00:23:20.947Z,0
2019-05-15T00:24:25.644Z,0
2019-05-15T00:25:22.773Z,0
2019-05-15T00:26:20.842Z,0
2019-05-15T00:27:20.342Z,0
2019-05-15T00:28:21.206Z,0
2019-05-15T00:29:28.872Z,0
2019-05-15T00:30:21.058Z,0
2019-05-15T00:31:21.600Z,0
2019-05-15T00:32:21.284Z,0
2019-05-15T00:34:28.435Z,0
2019-05-15T00:41:09.137Z,0
2019-05-15T00:41:21.220Z,0
2019-05-15T00:42:21.674Z,0
2019-05-15T00:43:21.028Z,0
2019-05-15T00:44:21.363Z,0
2019-05-15T00:49:40.959Z,0
2019-05-15T00:50:53.847Z,0
2019-05-15T00:51:54.011Z,0
2019-05-15T00:52:53.650Z,0
2019-05-15T00:53:53.881Z,0
2019-05-15T00:54:53.669Z,0
2019-05-15T00:55:53.880Z,0
2019-05-15T00:56:53.701Z,0
2019-05-15T00:57:53.768Z,0
2019-05-15T00:59:08.212Z,0
2019-05-15T00:59:53.921Z,0
2019-05-15T01:00:53.925Z,0
2019-05-15T01:01:54.038Z,0
2019-05-15T01:02:53.855Z,0
2019-05-15T01:03:54.438Z,0
2019-05-15T01:04:53.262Z,0
2019-05-15T01:05:53.690Z,0
2019-05-15T01:06:55.407Z,0
2019-05-15T01:07:53.252Z,0
2019-05-15T01:08:53.525Z,0
2019-05-15T01:09:53.966Z,0
2019-05-15T01:10:54.113Z,0
2019-05-15T01:11:54.347Z,0
2019-05-15T01:12:53.848Z,0
2019-05-15T01:13:53.376Z,0
2019-05-15T01:14:54.101Z,0
2019-05-15T01:15:54.035Z,0
2019-05-15T01:16:54.239Z,0
2019-05-15T01:17:54.690Z,0
2019-05-15T01:18:54.270Z,0
2019-05-15T01:19:53.436Z,0
2019-05-15T01:20:54.408Z,0
2019-05-15T01:21:53.373Z,0
2019-05-15T01:22:53.786Z,0
2019-05-15T01:23:53.690Z,0
2019-05-15T01:24:53.837Z,0
2019-05-15T01:25:53.456Z,0
2019-05-15T01:26:54.327Z,0
2019-05-15T01:27:54.175Z,0
2019-05-15T01:29:58.143Z,0
2019-05-15T01:30:53.941Z,0
2019-05-15T01:31:54.215Z,0
2019-05-15T01:32:53.686Z,0
2019-05-15T01:33:53.356Z,0
2019-05-15T01:34:58.035Z,0
2019-05-15T01:35:54.015Z,0
2019-05-15T01:36:54.248Z,0
2019-05-15T01:37:53.546Z,0
2019-05-15T01:38:53.283Z,0
2019-05-15T01:39:53.839Z,0
2019-05-15T01:40:54.256Z,0
2019-05-15T01:41:54.733Z,0
2019-05-15T01:42:52.645Z,0
2019-05-15T01:43:54.238Z,0
2019-05-15T01:44:53.645Z,0
2019-05-15T01:45:53.587Z,0
2019-05-15T01:46:53.846Z,0
2019-05-15T01:47:53.264Z,0
2019-05-15T01:48:54.469Z,0
2019-05-15T01:49:54.169Z,0
2019-05-15T01:50:54.367Z,0
2019-05-15T01:51:53.265Z,0
2019-05-15T01:52:53.451Z,0
2019-05-15T01:53:53.307Z,0
2019-05-15T01:54:54.142Z,0
2019-05-15T01:55:53.637Z,0
2019-05-15T01:56:54.544Z,0
2019-05-15T01:57:53.985Z,0
2019-05-15T02:00:08.667Z,0
2019-05-15T02:00:53.616Z,0
2019-05-15T02:01:53.763Z,0
2019-05-15T02:02:53.317Z,0
2019-05-15T02:03:54.407Z,0
2019-05-15T02:04:54.234Z,0
2019-05-15T02:05:53.371Z,0
2019-05-15T02:06:53.546Z,0
2019-05-15T02:07:53.146Z,0
2019-05-15T02:15:21.798Z,0
2019-05-15T02:16:33.975Z,0
2019-05-15T02:17:33.468Z,0
2019-05-15T02:18:33.785Z,0
2019-05-15T02:19:34.325Z,0
2019-05-15T02:20:34.413Z,0
2019-05-15T02:21:34.215Z,0
2019-05-15T02:22:33.619Z,0
2019-05-15T02:23:33.321Z,0
2019-05-15T02:24:33.701Z,0
2019-05-15T02:25:33.618Z,0
2019-05-15T02:26:33.453Z,0
2019-05-15T02:27:34.707Z,0
2019-05-15T02:28:34.201Z,0
2019-05-15T02:29:37.790Z,0
2019-05-15T02:30:45.657Z,0
2019-05-15T02:31:38.872Z,0
2019-05-15T02:32:35.513Z,0
2019-05-15T02:33:35.393Z,0
2019-05-15T02:34:35.421Z,0
2019-05-15T02:35:34.825Z,0
2019-05-15T02:36:34.613Z,0
2019-05-15T02:37:34.996Z,0
2019-05-15T02:38:34.918Z,0
2019-05-15T02:39:34.254Z,0
2019-05-15T02:44:52.519Z,0
2019-05-15T02:45:09.573Z,0
2019-05-15T02:46:05.846Z,0
2019-05-15T02:47:09.111Z,0
2019-05-15T02:48:04.938Z,0
2019-05-15T02:49:04.514Z,0
2019-05-15T02:50:05.297Z,0
2019-05-15T02:51:09.396Z,0
2019-05-15T02:52:05.577Z,0
2019-05-15T02:53:09.358Z,0
2019-05-15T02:54:09.925Z,0
2019-05-15T02:55:05.294Z,0
2019-05-15T02:56:05.747Z,0
2019-05-15T02:57:09.535Z,0
2019-05-15T02:58:09.603Z,0
2019-05-15T02:59:13.936Z,0
2019-05-15T03:00:10.555Z,0
2019-05-15T03:01:09.234Z,0
2019-05-15T03:02:05.104Z,0
2019-05-15T03:03:05.456Z,0
2019-05-15T03:04:04.891Z,0
2019-05-15T03:05:04.897Z,0
2019-05-15T03:06:05.422Z,0
2019-05-15T03:07:05.614Z,0
2019-05-15T03:08:09.493Z,0
2019-05-15T03:09:04.887Z,0
2019-05-15T03:10:05.189Z,0
2019-05-15T03:11:09.722Z,0
2019-05-15T03:12:08.904Z,0
2019-05-15T03:13:05.523Z,0
2019-05-15T03:14:09.231Z,0
2019-05-15T03:15:05.217Z,0
2019-05-15T03:16:05.180Z,0
2019-05-15T03:17:09.743Z,0
2019-05-15T03:18:05.668Z,0
2019-05-15T03:19:09.903Z,0
2019-05-15T03:20:10.259Z,0
2019-05-15T03:21:05.702Z,0
2019-05-15T03:22:05.158Z,0
2019-05-15T03:23:05.014Z,0
2019-05-15T03:24:09.819Z,0
2019-05-15T03:25:10.481Z,0
2019-05-15T03:26:11.589Z,0
2019-05-15T03:27:04.602Z,0
2019-05-15T03:28:10.402Z,0
2019-05-15T03:30:12.187Z,0
2019-05-15T03:32:45.748Z,0
2019-05-15T03:33:45.325Z,0
2019-05-15T03:34:37.841Z,0
2019-05-15T03:35:24.992Z,0
2019-05-15T03:36:22.136Z,0
2019-05-15T03:37:14.632Z,0
2019-05-15T03:38:05.149Z,0
2019-05-15T03:39:03.905Z,0
2019-05-15T03:40:04.926Z,0
2019-05-15T03:41:04.923Z,0
2019-05-15T03:42:04.135Z,0
2019-05-15T03:43:04.873Z,0
2019-05-15T03:44:12.161Z,0
2019-05-15T03:45:05.196Z,0
2019-05-15T03:46:09.011Z,0
2019-05-15T03:47:05.070Z,0
2019-05-15T03:48:04.948Z,0
2019-05-15T03:49:08.611Z,0
2019-05-15T03:50:08.745Z,0
2019-05-15T03:51:05.017Z,0
2019-05-15T03:52:04.199Z,0
2019-05-15T03:53:04.154Z,0
2019-05-15T03:54:05.638Z,0
2019-05-15T03:55:04.513Z,0
2019-05-15T03:56:04.267Z,0
2019-05-15T03:57:03.863Z,0
2019-05-15T03:58:04.426Z,0
2019-05-15T03:59:05.047Z,0
2019-05-15T04:00:04.964Z,0
2019-05-15T04:01:23.544Z,0
2019-05-15T04:02:08.479Z,0
2019-05-15T04:03:04.467Z,0
2019-05-15T04:04:05.128Z,0
2019-05-15T04:05:14.177Z,0
2019-05-15T04:06:05.877Z,0
2019-05-15T04:07:08.414Z,0
2019-05-15T04:08:05.198Z,0
2019-05-15T04:09:03.931Z,0
2019-05-15T04:10:04.043Z,0
2019-05-15T04:11:04.949Z,0
2019-05-15T04:14:12.876Z,0
2019-05-15T04:15:29.833Z,0
2019-05-15T04:16:29.531Z,0
2019-05-15T04:17:29.427Z,0
2019-05-15T04:18:29.006Z,0
2019-05-15T04:19:29.565Z,0
2019-05-15T04:20:25.385Z,0
2019-05-15T04:21:25.393Z,0
2019-05-15T04:22:29.023Z,0
2019-05-15T04:23:29.766Z,0
2019-05-15T04:24:29.839Z,0
2019-05-15T04:25:29.642Z,0
2019-05-15T04:26:28.623Z,5
2019-05-15T04:27:28.935Z,5
2019-05-15T04:28:29.216Z,5
2019-05-15T04:29:34.283Z,5
2019-05-15T04:30:26.687Z,5
2019-05-15T04:31:31.678Z,5
2019-05-15T04:32:28.856Z,5
2019-05-15T04:34:31.776Z,5
2019-05-15T04:34:44.957Z,5
2019-05-15T04:35:45.577Z,5
2019-05-15T04:36:49.709Z,5
2019-05-15T04:37:49.044Z,5
2019-05-15T04:38:44.581Z,5
2019-05-15T04:39:45.385Z,5
2019-05-15T04:40:45.182Z,5
2019-05-15T04:41:44.593Z,5
2019-05-15T04:42:45.623Z,5
2019-05-15T04:43:59.723Z,5
2019-05-15T04:44:44.796Z,5
2019-05-15T04:45:49.723Z,5
2019-05-15T04:46:44.508Z,10
2019-05-15T04:47:45.110Z,10
2019-05-15T04:48:45.524Z,10
2019-05-15T04:49:44.670Z,10
2019-05-15T04:50:45.355Z,10
2019-05-15T04:51:44.440Z,10
2019-05-15T04:52:50.088Z,10
2019-05-15T04:53:50.207Z,10
2019-05-15T04:54:49.134Z,10
2019-05-15T04:55:48.826Z,10
2019-05-15T04:56:45.313Z,10
2019-05-15T04:57:50.143Z,10
2019-05-15T04:58:44.891Z,10
2019-05-15T04:59:44.415Z,10
2019-05-15T05:00:45.239Z,10
2019-05-15T05:01:45.449Z,10
2019-05-15T05:02:45.499Z,10
2019-05-15T05:03:49.537Z,15
2019-05-15T05:04:44.057Z,15
2019-05-15T05:05:44.457Z,15
2019-05-15T05:06:44.029Z,15
2019-05-15T05:07:44.347Z,15
2019-05-15T05:08:45.043Z,15
2019-05-15T05:09:44.311Z,15
2019-05-15T05:10:44.955Z,15
2019-05-15T05:11:43.894Z,15
2019-05-15T05:12:50.718Z,15
2019-05-15T05:13:44.548Z,15
2019-05-15T05:14:44.382Z,15
2019-05-15T05:15:44.209Z,15
2019-05-15T05:16:44.669Z,15
2019-05-15T05:17:44.924Z,20
2019-05-15T05:18:48.766Z,20
2019-05-15T05:19:47.724Z,20
2019-05-15T05:25:00.980Z,20
2019-05-15T05:25:13.451Z,20
2019-05-15T05:26:18.484Z,20
2019-05-15T05:27:13.981Z,20
2019-05-15T05:28:13.980Z,20
2019-05-15T05:29:13.887Z,20
2019-05-15T05:34:31.634Z,20
2019-05-15T05:34:44.408Z,20
2019-05-15T05:35:44.359Z,20
2019-05-15T05:36:43.931Z,20
2019-05-15T05:37:44.330Z,25
2019-05-15T05:38:43.969Z,25
2019-05-15T05:39:44.646Z,20
2019-05-15T05:40:43.730Z,25
2019-05-15T05:41:44.743Z,25
2019-05-15T05:42:44.288Z,25
2019-05-15T05:43:43.655Z,25
2019-05-15T05:44:45.875Z,25
2019-05-15T05:45:43.581Z,25
2019-05-15T05:46:45.065Z,25
2019-05-15T05:47:43.777Z,25
2019-05-15T05:48:43.649Z,25
2019-05-15T05:49:43.490Z,25
2019-05-15T05:50:49.496Z,25
2019-05-15T05:51:44.031Z,30
2019-05-15T05:52:44.285Z,30
2019-05-15T05:53:43.899Z,30
2019-05-15T05:54:43.560Z,30
2019-05-15T05:55:43.714Z,30
2019-05-15T05:56:43.103Z,30
2019-05-15T05:57:43.646Z,30
2019-05-15T05:58:44.380Z,30
2019-05-15T05:59:43.989Z,30
2019-05-15T06:00:44.569Z,30
2019-05-15T06:04:01.057Z,40
2019-05-15T06:04:13.136Z,40
2019-05-15T06:05:13.570Z,40
2019-05-15T06:06:14.806Z,45
2019-05-15T06:07:27.892Z,45
2019-05-15T06:08:13.304Z,50
2019-05-15T06:09:14.278Z,45
2019-05-15T06:10:14.204Z,45
2019-05-15T06:11:15.212Z,45
2019-05-15T06:12:13.089Z,50
2019-05-15T06:13:13.972Z,55
2019-05-15T06:14:14.027Z,65
2019-05-15T06:15:14.054Z,70
2019-05-15T06:16:13.729Z,80
2019-05-15T06:17:14.066Z,85
2019-05-15T06:19:18.176Z,105
2019-05-15T06:19:31.335Z,105
2019-05-15T06:20:30.943Z,125
2019-05-15T06:21:31.210Z,170
2019-05-15T06:22:30.359Z,260
2019-05-15T06:23:55.022Z,320
2019-05-15T06:24:33.099Z,320
2019-05-15T06:25:33.246Z,260
2019-05-15T06:26:30.914Z,170
2019-05-15T06:27:30.636Z,155
2019-05-15T06:28:31.892Z,150
2019-05-15T06:29:40.521Z,110
2019-05-15T06:30:41.160Z,130
2019-05-15T06:31:30.826Z,190
2019-05-15T06:32:31.622Z,225
2019-05-15T06:33:30.432Z,340
2019-05-15T06:34:31.231Z,345
2019-05-15T06:35:33.901Z,345
2019-05-15T06:36:31.569Z,355
2019-05-15T06:37:31.327Z,365
2019-05-15T06:38:33.726Z,380
2019-05-15T06:39:31.096Z,375
2019-05-15T06:40:31.944Z,355
2019-05-15T06:41:33.872Z,310
2019-05-15T06:42:31.016Z,330
2019-05-15T06:43:30.739Z,335
2019-05-15T06:44:30.727Z,310
2019-05-15T06:45:31.122Z,285
2019-05-15T06:46:30.842Z,265
2019-05-15T06:47:31.096Z,255
2019-05-15T06:48:31.587Z,120
2019-05-15T06:49:31.292Z,70
2019-05-15T06:50:31.317Z,50
2019-05-15T06:51:31.469Z,45
2019-05-15T06:52:31.125Z,40
2019-05-15T06:53:31.746Z,45
2019-05-15T06:54:31.194Z,45
2019-05-15T06:55:31.556Z,45
2019-05-15T06:56:30.923Z,55
2019-05-15T06:57:31.388Z,60
2019-05-15T06:58:34.259Z,60
2019-05-15T06:59:38.879Z,65
2019-05-15T07:00:31.023Z,60
2019-05-15T07:01:32.024Z,65
2019-05-15T07:02:31.179Z,65
2019-05-15T07:03:39.173Z,65
2019-05-15T07:04:31.441Z,70
2019-05-15T07:05:32.104Z,65
2019-05-15T07:06:31.392Z,70
2019-05-15T07:07:31.417Z,65
2019-05-15T07:08:31.505Z,65
2019-05-15T07:09:31.247Z,60
2019-05-15T07:10:31.491Z,60
2019-05-15T07:11:30.915Z,70
2019-05-15T07:12:30.786Z,70
2019-05-15T07:13:31.758Z,60
2019-05-15T07:14:31.490Z,55
2019-05-15T07:15:30.515Z,60
2019-05-15T07:16:31.172Z,65
2019-05-15T07:17:31.446Z,65
2019-05-15T07:18:31.083Z,60
2019-05-15T07:19:31.078Z,70
2019-05-15T07:20:31.179Z,65
2019-05-15T07:21:33.581Z,60
2019-05-15T07:22:31.928Z,65
2019-05-15T07:23:33.535Z,60
2019-05-15T07:24:31.667Z,60
2019-05-15T07:25:31.954Z,60
2019-05-15T07:26:31.667Z,60
2019-05-15T07:27:31.017Z,60
2019-05-15T07:28:31.516Z,60
2019-05-15T07:29:43.496Z,60
2019-05-15T07:30:31.360Z,60
2019-05-15T07:31:31.572Z,65
2019-05-15T07:32:31.236Z,60
2019-05-15T07:33:54.157Z,65
2019-05-15T07:34:31.027Z,65
2019-05-15T07:35:34.061Z,70
2019-05-15T07:36:31.450Z,60
2019-05-15T07:37:31.614Z,65
2019-05-15T07:38:30.906Z,65
2019-05-15T07:39:31.529Z,65
2019-05-15T07:40:32.371Z,60
2019-05-15T07:41:31.136Z,60
2019-05-15T07:42:31.795Z,60
2019-05-15T07:43:30.799Z,65
2019-05-15T07:44:30.888Z,60
2019-05-15T07:45:33.594Z,65
2019-05-15T07:46:31.535Z,60
2019-05-15T07:47:31.946Z,55
2019-05-15T07:48:31.806Z,55
2019-05-15T07:49:31.532Z,55
2019-05-15T07:50:32.539Z,55
2019-05-15T07:51:31.362Z,50
2019-05-15T07:54:38.878Z,45
2019-05-15T07:54:51.474Z,40
2019-05-15T07:55:52.892Z,40
2019-05-15T07:56:51.509Z,40
2019-05-15T07:57:52.312Z,40
2019-05-15T07:58:55.332Z,40
2019-05-15T07:59:53.330Z,40
2019-05-15T08:00:52.013Z,40
2019-05-15T08:01:51.566Z,40
2019-05-15T08:02:50.854Z,45
2019-05-15T08:04:37.899Z,50
2019-05-15T08:04:50.906Z,50
2019-05-15T08:06:11.475Z,50
2019-05-15T08:06:51.745Z,55
2019-05-15T08:07:51.727Z,55
2019-05-15T08:08:51.299Z,55
2019-05-15T08:09:51.311Z,55
2019-05-15T08:10:51.728Z,55
2019-05-15T08:11:51.325Z,55
2019-05-15T08:12:52.030Z,55
2019-05-15T08:13:51.365Z,55
2019-05-15T08:14:53.762Z,55
2019-05-15T08:15:51.327Z,55
2019-05-15T08:16:51.218Z,75
2019-05-15T08:18:20.629Z,60
2019-05-15T08:18:51.145Z,60
2019-05-15T08:19:51.332Z,60
2019-05-15T08:22:51.400Z,55
2019-05-15T08:23:03.845Z,55
2019-05-15T08:24:04.356Z,60
2019-05-15T08:25:06.854Z,55
2019-05-15T08:26:03.463Z,55
2019-05-15T08:27:03.915Z,55
2019-05-15T08:28:08.726Z,55
2019-05-15T08:29:08.368Z,50
2019-05-15T08:30:04.047Z,50
2019-05-15T08:31:06.632Z,50
2019-05-15T08:32:04.289Z,50
2019-05-15T08:33:04.212Z,45
2019-05-15T08:34:19.655Z,45
2019-05-15T08:35:03.925Z,45
2019-05-15T08:36:04.135Z,45
2019-05-15T08:37:04.258Z,45
2019-05-15T08:38:03.528Z,45
2019-05-15T08:39:04.395Z,45
2019-05-15T08:40:04.871Z,50
2019-05-15T08:41:04.920Z,45
2019-05-15T08:42:03.702Z,50
2019-05-15T08:43:14.073Z,50
2019-05-15T08:44:03.333Z,50
2019-05-15T08:45:03.625Z,50
2019-05-15T08:46:03.970Z,50
2019-05-15T08:47:04.664Z,50
2019-05-15T08:48:03.860Z,50
2019-05-15T08:49:03.597Z,50
2019-05-15T08:50:03.193Z,55
2019-05-15T08:51:03.166Z,50
2019-05-15T08:52:06.778Z,50
2019-05-15T08:53:03.530Z,50
2019-05-15T08:54:03.269Z,45
2019-05-15T08:55:04.401Z,45
2019-05-15T08:56:04.095Z,45
2019-05-15T08:57:04.518Z,45
2019-05-15T08:58:23.115Z,45
2019-05-15T08:59:03.641Z,50
2019-05-15T09:00:03.686Z,45
2019-05-15T09:01:04.187Z,45
2019-05-15T09:02:03.477Z,45
2019-05-15T09:03:03.523Z,45
2019-05-15T09:04:03.490Z,50
2019-05-15T09:05:03.703Z,50
2019-05-15T09:06:04.223Z,50
2019-05-15T09:07:08.939Z,50
2019-05-15T09:08:03.288Z,50
2019-05-15T09:09:03.813Z,50
2019-05-15T09:10:03.381Z,50
2019-05-15T09:11:04.377Z,50
2019-05-15T09:12:03.745Z,50
2019-05-15T09:13:09.392Z,50
2019-05-15T09:14:08.155Z,50
2019-05-15T09:15:03.403Z,50
2019-05-15T09:16:04.203Z,50
2019-05-15T09:17:03.883Z,50
2019-05-15T09:18:28.192Z,50
2019-05-15T09:19:04.744Z,50
2019-05-15T09:20:08.074Z,50
2019-05-15T09:21:04.686Z,55
2019-05-15T09:22:03.793Z,55
2019-05-15T09:23:03.904Z,55
2019-05-15T09:24:04.236Z,55
2019-05-15T09:25:04.265Z,55
2019-05-15T09:26:03.138Z,55
2019-05-15T09:27:04.768Z,55
2019-05-15T09:28:03.200Z,55
2019-05-15T09:29:04.172Z,55
2019-05-15T09:30:13.991Z,55
2019-05-15T09:31:04.387Z,60
2019-05-15T09:32:04.116Z,60
2019-05-15T09:33:04.147Z,60
2019-05-15T09:34:03.923Z,60
2019-05-15T09:35:08.287Z,60
2019-05-15T09:36:03.590Z,70
2019-05-15T09:37:05.289Z,85
2019-05-15T09:38:03.583Z,80
2019-05-15T09:39:03.856Z,75
2019-05-15T09:40:03.691Z,85
2019-05-15T09:41:04.187Z,85
2019-05-15T09:42:05.747Z,85
2019-05-15T09:43:03.080Z,85
2019-05-15T09:44:03.150Z,85
2019-05-15T09:45:03.456Z,75
2019-05-15T09:46:03.591Z,90
2019-05-15T09:47:04.004Z,80
2019-05-15T09:48:04.572Z,100
2019-05-15T09:49:04.594Z,90
2019-05-15T09:50:04.212Z,100
2019-05-15T09:51:03.988Z,100
2019-05-15T09:52:03.843Z,95
2019-05-15T09:53:04.532Z,85
2019-05-15T09:54:04.847Z,100
2019-05-15T09:55:04.781Z,100
2019-05-15T09:56:05.154Z,100
2019-05-15T09:57:03.847Z,85
2019-05-15T09:58:08.239Z,100
2019-05-15T09:59:03.740Z,80
2019-05-15T10:00:11.618Z,75
2019-05-15T10:01:04.010Z,70
2019-05-15T10:02:04.307Z,85
2019-05-15T10:03:02.599Z,65
2019-05-15T10:04:02.680Z,80
2019-05-15T10:05:21.281Z,70
2019-05-15T10:06:02.660Z,60
2019-05-15T10:07:02.625Z,70
2019-05-15T10:10:11.407Z,60
2019-05-15T10:10:24.528Z,65
2019-05-15T10:11:25.375Z,80
2019-05-15T10:12:23.578Z,70
2019-05-15T10:13:23.801Z,60
2019-05-15T10:14:24.846Z,50
2019-05-15T10:15:23.884Z,55
2019-05-15T10:16:25.230Z,45
2019-05-15T10:17:25.478Z,45
2019-05-15T10:18:24.407Z,55
2019-05-15T10:19:23.872Z,70
2019-05-15T10:20:23.796Z,75
2019-05-15T10:21:28.792Z,70
2019-05-15T10:22:24.000Z,85
2019-05-15T10:23:24.981Z,100
2019-05-15T10:24:23.459Z,85
2019-05-15T10:25:24.260Z,70
2019-05-15T10:26:28.503Z,95
2019-05-15T10:27:23.292Z,95
2019-05-15T10:28:29.238Z,85
2019-05-15T10:29:22.735Z,75
2019-05-15T10:30:24.212Z,80
2019-05-15T10:31:24.860Z,80
2019-05-15T10:36:41.299Z,90
2019-05-15T10:36:54.666Z,70
2019-05-15T10:37:54.083Z,85
2019-05-15T10:38:54.180Z,90
2019-05-15T10:39:58.372Z,95
2019-05-15T10:41:24.084Z,90
2019-05-15T10:41:53.534Z,90
2019-05-15T10:42:54.787Z,95
2019-05-15T10:45:01.479Z,90
2019-05-15T10:46:21.554Z,80
2019-05-15T10:47:14.087Z,70
2019-05-15T10:48:14.712Z,70
2019-05-15T10:49:13.935Z,85
2019-05-15T10:50:13.238Z,85
2019-05-15T10:51:21.938Z,60
2019-05-15T10:52:17.960Z,70
2019-05-15T10:55:23.684Z,105
2019-05-15T10:55:39.395Z,70
2019-05-15T10:56:38.498Z,75
2019-05-15T10:57:41.679Z,85
2019-05-15T10:58:38.932Z,70
2019-05-15T10:59:35.486Z,70
2019-05-15T11:00:36.618Z,75
2019-05-15T11:01:34.631Z,65
2019-05-15T11:02:39.106Z,60
2019-05-15T11:03:42.651Z,55
2019-05-15T11:04:36.663Z,55
2019-05-15T11:05:54.379Z,60
2019-05-15T11:06:38.306Z,50
2019-05-15T11:07:39.092Z,55
2019-05-15T11:08:40.159Z,65
2019-05-15T11:09:37.473Z,65
2019-05-15T11:10:38.502Z,70
2019-05-15T11:11:34.697Z,70
2019-05-15T11:12:37.141Z,70
2019-05-15T11:13:38.124Z,95
2019-05-15T11:14:37.940Z,85
2019-05-15T11:15:39.408Z,60
2019-05-15T11:16:38.845Z,100
2019-05-15T11:17:38.505Z,85
2019-05-15T11:18:39.269Z,70
2019-05-15T11:19:49.491Z,100
2019-05-15T11:20:35.065Z,90
2019-05-15T11:21:35.070Z,95
2019-05-15T11:22:39.030Z,85
2019-05-15T11:23:39.364Z,75
2019-05-15T11:24:41.279Z,75
2019-05-15T11:25:37.903Z,80
2019-05-15T11:26:41.746Z,65
2019-05-15T11:27:41.874Z,70
2019-05-15T11:28:41.879Z,70
2019-05-15T11:29:34.734Z,85
2019-05-15T11:30:34.870Z,90
2019-05-15T11:31:39.119Z,95
2019-05-15T11:32:39.026Z,80
2019-05-15T11:33:38.432Z,80
2019-05-15T11:34:38.232Z,70
2019-05-15T11:35:39.066Z,70
2019-05-15T11:36:38.616Z,65
2019-05-15T11:37:43.817Z,65
2019-05-15T11:38:38.125Z,65
2019-05-15T11:39:44.473Z,55
2019-05-15T11:40:38.381Z,75
2019-05-15T11:41:38.609Z,85
2019-05-15T11:42:39.285Z,105
2019-05-15T11:43:38.483Z,100
2019-05-15T11:44:36.129Z,85
2019-05-15T11:45:38.906Z,85
2019-05-15T11:46:39.019Z,90
2019-05-15T11:47:35.759Z,100
2019-05-15T11:48:39.110Z,105
2019-05-15T11:49:38.359Z,105
2019-05-15T11:50:39.941Z,100
2019-05-15T11:51:38.348Z,95
2019-05-15T11:52:42.039Z,80
2019-05-15T11:53:36.331Z,80
2019-05-15T11:54:38.474Z,85
2019-05-15T11:55:38.597Z,100
2019-05-15T11:56:39.125Z,80
2019-05-15T12:00:35.609Z,70
2019-05-15T12:01:18.985Z,75
2019-05-15T12:02:18.786Z,100
2019-05-15T12:03:18.733Z,85
2019-05-15T12:04:38.312Z,70
2019-05-15T12:05:18.221Z,65
2019-05-15T12:06:31.995Z,70
2019-05-15T12:07:18.161Z,65
2019-05-15T12:08:18.436Z,85
2019-05-15T12:09:14.821Z,95
2019-05-15T12:10:20.969Z,75
2019-05-15T12:11:37.136Z,95
2019-05-15T12:12:18.029Z,95
2019-05-15T12:13:15.151Z,85
2019-05-15T12:14:19.261Z,85
2019-05-15T12:15:14.356Z,80
2019-05-15T12:16:13.885Z,70
2019-05-15T12:17:24.290Z,80
2019-05-15T12:18:20.508Z,65
2019-05-15T12:21:25.517Z,65
2019-05-15T12:21:42.149Z,70
2019-05-15T12:22:41.751Z,70
2019-05-15T12:23:41.536Z,70
2019-05-15T12:26:44.934Z,70
2019-05-15T12:27:59.598Z,65
2019-05-15T12:30:32.272Z,80
2019-05-15T12:31:34.921Z,85
2019-05-15T12:35:05.105Z,70
2019-05-15T12:36:01.406Z,70
2019-05-15T12:39:13.686Z,85
2019-05-15T12:59:47.618Z,70
2019-05-15T13:00:48.387Z,85
2019-05-15T13:01:46.974Z,85
2019-05-15T13:02:49.035Z,75
2019-05-15T13:03:48.758Z,80
2019-05-15T13:04:46.975Z,65
2019-05-15T13:05:48.525Z,70
2019-05-15T13:07:23.151Z,60
2019-05-15T13:07:48.471Z,60
2019-05-15T13:08:51.520Z,70
2019-05-15T13:09:48.740Z,60
2019-05-15T13:10:51.311Z,55
2019-05-15T13:11:48.627Z,60
2019-05-15T13:13:12.383Z,55
2019-05-15T13:13:48.514Z,50
2019-05-15T13:14:48.308Z,50
2019-05-15T13:15:51.041Z,50
2019-05-15T13:16:47.998Z,50
2019-05-15T13:17:55.083Z,50
2019-05-15T13:18:48.057Z,45
2019-05-15T13:19:48.216Z,45
2019-05-15T13:20:51.521Z,45
2019-05-15T13:21:51.205Z,40
2019-05-15T13:23:48.085Z,40
2019-05-15T13:24:48.216Z,40
2019-05-15T13:25:48.290Z,35
2019-05-15T13:26:47.604Z,35
2019-05-15T13:27:48.873Z,35
2019-05-15T13:28:48.619Z,35
2019-05-15T13:29:48.491Z,35
2019-05-15T13:30:51.639Z,35
2019-05-15T13:31:50.516Z,35
2019-05-15T13:32:52.139Z,35
2019-05-15T13:33:48.085Z,35
2019-05-15T13:34:48.710Z,35
2019-05-15T13:35:51.400Z,35
2019-05-15T13:36:48.529Z,35
2019-05-15T13:37:51.969Z,35
2019-05-15T13:38:50.853Z,35
2019-05-15T13:39:48.515Z,35
2019-05-15T13:40:53.832Z,35
2019-05-15T13:41:48.314Z,35
2019-05-15T13:42:48.259Z,35
2019-05-15T13:43:46.480Z,35
2019-05-15T13:44:49.141Z,35
2019-05-15T13:45:48.906Z,35
2019-05-15T13:46:49.428Z,35
2019-05-15T13:47:46.667Z,35
2019-05-15T13:48:51.594Z,35
2019-05-15T13:49:47.997Z,35
2019-05-15T13:50:50.835Z,35
2019-05-15T13:52:30.031Z,35
2019-05-15T13:52:48.241Z,35
2019-05-15T13:53:48.856Z,35
2019-05-15T13:54:50.936Z,35
2019-05-15T13:55:53.682Z,35
2019-05-15T13:56:48.856Z,35
2019-05-15T13:57:51.133Z,30
2019-05-15T13:58:48.065Z,30
2019-05-15T13:59:48.293Z,30
2019-05-15T14:00:51.820Z,30
2019-05-15T14:01:48.578Z,30
2019-05-15T14:02:47.931Z,30
2019-05-15T14:03:48.223Z,25
2019-05-15T14:04:51.824Z,25
2019-05-15T14:05:52.524Z,25
2019-05-15T14:06:48.778Z,25
2019-05-15T14:08:03.567Z,25
2019-05-15T14:08:51.253Z,20
2019-05-15T14:09:53.575Z,20
2019-05-15T14:10:51.376Z,20
2019-05-15T14:11:49.176Z,20
2019-05-15T14:12:47.812Z,20
2019-05-15T14:13:48.551Z,20
2019-05-15T14:14:51.497Z,20
2019-05-15T14:15:51.330Z,20
2019-05-15T14:16:53.128Z,20
2019-05-15T14:17:48.330Z,20
2019-05-15T14:18:47.944Z,20
2019-05-15T14:19:48.503Z,20
2019-05-15T14:20:49.119Z,20
2019-05-15T14:21:49.122Z,20
2019-05-15T14:22:48.392Z,20
2019-05-15T14:23:47.828Z,20
2019-05-15T14:24:48.946Z,20
2019-05-15T14:25:48.200Z,20
2019-05-15T14:26:48.305Z,20
2019-05-15T14:30:32.257Z,20
2019-05-15T14:30:44.029Z,20
2019-05-15T14:31:48.317Z,20
2019-05-15T14:32:56.249Z,20
2019-05-15T14:33:43.293Z,25
2019-05-15T14:34:48.275Z,25
2019-05-15T14:35:45.724Z,25
2019-05-15T14:36:44.078Z,25
2019-05-15T14:37:43.692Z,25
2019-05-15T14:38:45.680Z,25
2019-05-15T14:39:43.404Z,25
2019-05-15T14:40:43.338Z,30
2019-05-15T14:41:49.021Z,30
2019-05-15T14:42:45.158Z,30
2019-05-15T14:43:45.558Z,30
2019-05-15T14:44:44.374Z,30
2019-05-15T14:45:44.216Z,30
2019-05-15T14:46:43.522Z,30
2019-05-15T14:47:44.059Z,25
2019-05-15T14:48:44.293Z,25
2019-05-15T14:49:54.793Z,30
2019-05-15T14:50:43.867Z,30
2019-05-15T14:51:44.682Z,30
2019-05-15T14:52:44.573Z,25
2019-05-15T14:53:43.917Z,25
2019-05-15T14:54:44.151Z,25
2019-05-15T14:55:54.498Z,25
2019-05-15T14:56:43.658Z,20
2019-05-15T14:57:48.679Z,20
2019-05-15T14:58:44.010Z,20
2019-05-15T14:59:45.625Z,20
2019-05-15T15:00:54.739Z,20
2019-05-15T15:01:44.049Z,20
2019-05-15T15:02:44.426Z,20
2019-05-15T15:03:45.865Z,20
2019-05-15T15:04:44.535Z,20
2019-05-15T15:05:44.142Z,15
2019-05-15T15:06:43.631Z,15
2019-05-15T15:07:48.782Z,15
2019-05-15T15:08:43.341Z,15
2019-05-15T15:09:43.369Z,15
2019-05-15T15:10:43.914Z,15
2019-05-15T15:11:48.266Z,15
2019-05-15T15:12:45.558Z,15
2019-05-15T15:13:46.120Z,15
2019-05-15T15:14:45.670Z,15
2019-05-15T15:15:48.440Z,10
2019-05-15T15:16:43.947Z,10
2019-05-15T15:17:49.036Z,10
2019-05-15T15:18:44.289Z,10
2019-05-15T15:19:51.322Z,10
2019-05-15T15:20:45.788Z,10
2019-05-15T15:21:48.496Z,10
2019-05-15T15:22:44.903Z,10
2019-05-15T15:23:44.636Z,10
2019-05-15T15:24:44.548Z,10
2019-05-15T15:25:45.132Z,10
2019-05-15T15:26:44.616Z,10
2019-05-15T15:27:44.162Z,10
2019-05-15T15:28:45.598Z,10
2019-05-15T15:29:44.377Z,10
2019-05-15T15:30:48.566Z,10
2019-05-15T15:31:44.815Z,10
2019-05-15T15:32:45.514Z,10
2019-05-15T15:33:44.515Z,10
2019-05-15T15:34:44.095Z,10
2019-05-15T15:35:45.945Z,10
2019-05-15T15:36:48.310Z,10
2019-05-15T15:37:48.122Z,10
2019-05-15T15:38:56.092Z,10
2019-05-15T15:39:44.226Z,10
2019-05-15T15:40:44.158Z,10
2019-05-15T15:41:44.339Z,5
2019-05-15T15:42:45.104Z,5
2019-05-15T15:43:44.063Z,5
2019-05-15T15:44:45.770Z,5